Galva, KS (67443)

5:11 AM CST on December 18, 2014 (GMT -0600)
Boese | Change Station
CLOSE
Current Station
Personal Weather Station
Location: McPherson, KS
Elevation: 1506 ft
Nearby Weather Stations
Active Advisory: Winter Weather Advisory

Elev 1506 ft 38.38 °N, 97.66 °W | Updated 2 seconds ago

Overcast
Overcast
28.2 °F
Feels Like 28 °F
N
1.6
Wind Variable Wind from NNE
Gusts 4.5 mph

Today
High -- | Low -- °F
--% Chance of Precip.
Yesterday
High -- | Low -- °F
Precip. -- in
7:42 AM 5:11 PM
Waning Crescent, 15% visible
Pressure 30.14 in
Visibility 2.5 miles
Clouds Overcast 600 ft
Windchill 28 °F
Dew Point 28 °F
Humidity 99%
Rainfall 0.00 in
Snow Depth Not available.
UV 0 out of 12
Pollen .10 out of 12
Air Quality Not available.
Flu Activity Not available.
METAR KEWK 181055Z AUTO 06003KT 2 1/2SM OVC006 M02/M05 A3014 RMK AO1

More Conditions Fewer Conditions

Pressure 30.14 in
Visibility 2.5 miles
Clouds Overcast 600 ft
Windchill 28 °F
Dew Point 28 °F
Humidity 99%
Rainfall 0.00 in
Snow Depth Not available.
UV 0 out of 12
Pollen .10 out of 12
Air Quality Not available.
Flu Activity Not available.
METAR KEWK 181055Z AUTO 06003KT 2 1/2SM OVC006 M02/M05 A3014 RMK AO1

More Conditions Fewer Conditions

10-Day Weather Forecast

Almanac

Astronomy

Dec. 18, 2014 Rise Set
Actual Time
Civil Twilight
Nautical Twilight
Astronomical Twilight
Moon
Length of Visible Light
Length of Day
Tomorrow will be .
, % of the Moon is Illuminated

Today's Extremes

State Highs State Lows

Community

WunderPhotos

Upload Photos

1,778,917 photos uploaded!

WunderBlogs® & News

Nearby

Air Quality

  Air Quality AQ Index Pollutant
Not available.

Snow Depth

Station Depth Elevation

Earthquake Activity

City Distance Mag. Time & Date
Minimum magnitude displayed is 2.5.

Coastal Water Temperatures

Place Temperature

Nearby Weather Stations